الصفحة الرئيسية
METAR-TAF:

METAR-TAF

مطار :

ريسيفي, بيرنامبوكو, البرازيل

دائرة عرض: 08-08S, خط طول: 034-55W, ارتفاع: 19 متر

مراقبة الطقس الحالي

تاريخ ووقت الإصدار 1ساعة و 11 دقيقة قبل الساعة 23:00UTC
ريح 11 عقدة من الجنوب/الجنوب الشرقي
درجة الحرارة 29°درجة مئوية
الرطوبة 84%
ضغط 1012 hPa
الرؤية 10 كم أو أكثر
غيوم متفرقة على ارتفاع 1700 قدم

METAR: SBRF 212300Z 15011KT 9999 SCT017 29/26 Q1012

زمن: 21:11 (00:11 UTC)

توقعات

تاريخ ووقت الإصدار 14ساعات و 11 دقيقة قبل الساعة 10:00UTC
التوقعات صالحة من22 الساعة 00 UTC إلى 22 الساعة 24 UTC
ريح 5 عقدة من الجنوب الغربي
الرؤية 10 كم أو أكثر
غيوم متفرقة على ارتفاع 2000 قدم
نظرية الاحتمالات 30%
من 22 الساعة 03 UTC إلى 22 الساعة 06 UTC
الرؤية: 5000 متر
غيوم مفككة على ارتفاع 1200 قدم
مطر, غشاء
أصبح
من 22 الساعة 12 UTC إلى 22 الساعة 14 UTC
ريح 5 عقدة من الجنوب/الجنوب الشرقي

TAF: SBRF 211000Z 2200/2224 22005KT 9999 SCT020 TN25/2208Z TX31/2214Z PROB30 2203/2206 5000 RA BR BKN012 BECMG 2212/2214 16005KT RMK PHD

أرصاد الطقس والتوقعات من أكثر من 4000 مطار (تقارير الطقس للمطار METAR والتنبؤ بالطقس بالمطارTAF).

المحطات المتاحة هي النقط الصفراء والحمراء على الخريطة.

حرك المؤشر فوق النقطة لمعرفة اسم المحطة.

ثم انقر لمعرفة أرصاد وتوقعات الطقس.

لتغيير الخارطة: اضغط على الأزرار الخضراء مع رمز الصليب الأسود للتكبير. على الزر الأخضر مع شرطة للتصغير، أو على الأسهم الخضراء للخرائط المجاورة.


METAR-TAF: